sensor_id;sensor_type;location;lat;lon;timestamp;temperature;humidity
61765;DHT22;50188;48.114;-1.388;2022-11-04T00:01:59;12.00;93.20
61765;DHT22;50188;48.114;-1.388;2022-11-04T00:04:27;12.00;93.10
61765;DHT22;50188;48.114;-1.388;2022-11-04T00:06:53;12.00;93.10
61765;DHT22;50188;48.114;-1.388;2022-11-04T00:09:21;12.00;92.90
61765;DHT22;50188;48.114;-1.388;2022-11-04T00:11:48;12.00;93.00
61765;DHT22;50188;48.114;-1.388;2022-11-04T00:14:34;12.00;93.00
61765;DHT22;50188;48.114;-1.388;2022-11-04T00:17:01;12.00;93.10
61765;DHT22;50188;48.114;-1.388;2022-11-04T00:19:49;12.00;92.90
61765;DHT22;50188;48.114;-1.388;2022-11-04T00:22:35;12.00;92.90
61765;DHT22;50188;48.114;-1.388;2022-11-04T00:25:21;12.00;92.80
61765;DHT22;50188;48.114;-1.388;2022-11-04T00:28:12;12.00;92.70
61765;DHT22;50188;48.114;-1.388;2022-11-04T00:30:59;11.90;92.70
61765;DHT22;50188;48.114;-1.388;2022-11-04T00:33:45;12.00;92.80
61765;DHT22;50188;48.114;-1.388;2022-11-04T00:36:11;11.90;92.90
61765;DHT22;50188;48.114;-1.388;2022-11-04T00:38:37;11.90;92.90
61765;DHT22;50188;48.114;-1.388;2022-11-04T00:41:02;11.90;93.00
61765;DHT22;50188;48.114;-1.388;2022-11-04T00:43:48;11.90;92.90
61765;DHT22;50188;48.114;-1.388;2022-11-04T00:46:13;11.90;93.00
61765;DHT22;50188;48.114;-1.388;2022-11-04T00:48:39;11.90;93.20
61765;DHT22;50188;48.114;-1.388;2022-11-04T00:51:05;11.90;93.10
61765;DHT22;50188;48.114;-1.388;2022-11-04T00:53:30;11.90;93.20
61765;DHT22;50188;48.114;-1.388;2022-11-04T00:55:58;11.90;93.20
61765;DHT22;50188;48.114;-1.388;2022-11-04T00:58:24;11.90;93.10
61765;DHT22;50188;48.114;-1.388;2022-11-04T01:00:49;11.90;93.10
61765;DHT22;50188;48.114;-1.388;2022-11-04T01:03:15;11.90;93.20
61765;DHT22;50188;48.114;-1.388;2022-11-04T01:05:40;11.80;93.30
61765;DHT22;50188;48.114;-1.388;2022-11-04T01:08:06;11.80;93.40
61765;DHT22;50188;48.114;-1.388;2022-11-04T01:10:34;11.80;93.40
61765;DHT22;50188;48.114;-1.388;2022-11-04T01:13:00;11.80;93.50
61765;DHT22;50188;48.114;-1.388;2022-11-04T01:15:26;11.80;93.50
61765;DHT22;50188;48.114;-1.388;2022-11-04T01:17:51;11.80;93.50
61765;DHT22;50188;48.114;-1.388;2022-11-04T01:20:17;11.80;93.50
61765;DHT22;50188;48.114;-1.388;2022-11-04T01:22:42;11.70;93.50
61765;DHT22;50188;48.114;-1.388;2022-11-04T01:25:09;11.70;93.50
61765;DHT22;50188;48.114;-1.388;2022-11-04T01:27:34;11.70;93.50
61765;DHT22;50188;48.114;-1.388;2022-11-04T01:30:00;11.70;93.50
61765;DHT22;50188;48.114;-1.388;2022-11-04T01:32:27;11.70;93.50
61765;DHT22;50188;48.114;-1.388;2022-11-04T01:34:52;11.60;93.50
61765;DHT22;50188;48.114;-1.388;2022-11-04T01:37:18;11.60;93.60
61765;DHT22;50188;48.114;-1.388;2022-11-04T01:39:43;11.60;93.40
61765;DHT22;50188;48.114;-1.388;2022-11-04T01:42:12;11.60;93.40
61765;DHT22;50188;48.114;-1.388;2022-11-04T01:44:47;11.60;93.30
61765;DHT22;50188;48.114;-1.388;2022-11-04T01:47:16;11.60;93.10
61765;DHT22;50188;48.114;-1.388;2022-11-04T01:49:43;11.60;93.20
61765;DHT22;50188;48.114;-1.388;2022-11-04T01:52:16;11.50;93.10
61765;DHT22;50188;48.114;-1.388;2022-11-04T01:54:45;11.50;93.10
61765;DHT22;50188;48.114;-1.388;2022-11-04T01:57:17;11.50;93.00
61765;DHT22;50188;48.114;-1.388;2022-11-04T01:59:44;11.50;92.80
61765;DHT22;50188;48.114;-1.388;2022-11-04T02:02:09;11.40;92.80
61765;DHT22;50188;48.114;-1.388;2022-11-04T02:04:36;11.40;92.70
61765;DHT22;50188;48.114;-1.388;2022-11-04T02:07:05;11.40;92.40
61765;DHT22;50188;48.114;-1.388;2022-11-04T02:09:32;11.30;92.40
61765;DHT22;50188;48.114;-1.388;2022-11-04T02:11:58;11.30;91.90
61765;DHT22;50188;48.114;-1.388;2022-11-04T02:14:47;11.20;92.20
61765;DHT22;50188;48.114;-1.388;2022-11-04T02:17:40;11.20;92.00
61765;DHT22;50188;48.114;-1.388;2022-11-04T02:20:26;11.10;92.00
61765;DHT22;50188;48.114;-1.388;2022-11-04T02:26:26;11.20;92.10
61765;DHT22;50188;48.114;-1.388;2022-11-04T02:32:22;11.20;91.40
61765;DHT22;50188;48.114;-1.388;2022-11-04T02:35:11;11.10;91.10
61765;DHT22;50188;48.114;-1.388;2022-11-04T02:37:47;11.10;90.90
61765;DHT22;50188;48.114;-1.388;2022-11-04T02:40:40;11.10;91.10
61765;DHT22;50188;48.114;-1.388;2022-11-04T02:43:15;11.00;91.10
61765;DHT22;50188;48.114;-1.388;2022-11-04T02:45:48;10.90;91.20
61765;DHT22;50188;48.114;-1.388;2022-11-04T02:48:32;11.00;91.10
61765;DHT22;50188;48.114;-1.388;2022-11-04T02:51:06;10.90;91.10
61765;DHT22;50188;48.114;-1.388;2022-11-04T02:54:04;10.90;91.30
61765;DHT22;50188;48.114;-1.388;2022-11-04T02:56:36;10.80;91.00
61765;DHT22;50188;48.114;-1.388;2022-11-04T02:59:06;10.70;91.20
61765;DHT22;50188;48.114;-1.388;2022-11-04T03:01:37;10.80;91.20
61765;DHT22;50188;48.114;-1.388;2022-11-04T03:04:13;10.70;91.20
61765;DHT22;50188;48.114;-1.388;2022-11-04T03:06:41;10.60;91.30
61765;DHT22;50188;48.114;-1.388;2022-11-04T03:09:09;10.60;91.40
61765;DHT22;50188;48.114;-1.388;2022-11-04T03:11:37;10.60;91.50
61765;DHT22;50188;48.114;-1.388;2022-11-04T03:14:09;10.50;91.60
61765;DHT22;50188;48.114;-1.388;2022-11-04T03:16:49;10.50;91.60
61765;DHT22;50188;48.114;-1.388;2022-11-04T03:19:28;10.50;91.70
61765;DHT22;50188;48.114;-1.388;2022-11-04T03:22:00;10.50;91.70
61765;DHT22;50188;48.114;-1.388;2022-11-04T03:24:29;10.50;91.70
61765;DHT22;50188;48.114;-1.388;2022-11-04T03:27:04;10.40;92.00
61765;DHT22;50188;48.114;-1.388;2022-11-04T03:29:55;10.40;91.90
61765;DHT22;50188;48.114;-1.388;2022-11-04T03:35:13;10.40;92.00
61765;DHT22;50188;48.114;-1.388;2022-11-04T03:37:41;10.30;92.00
61765;DHT22;50188;48.114;-1.388;2022-11-04T03:40:07;10.40;92.10
61765;DHT22;50188;48.114;-1.388;2022-11-04T03:42:37;10.40;92.30
61765;DHT22;50188;48.114;-1.388;2022-11-04T03:45:05;10.40;92.30
61765;DHT22;50188;48.114;-1.388;2022-11-04T03:47:31;10.40;92.40
61765;DHT22;50188;48.114;-1.388;2022-11-04T03:50:08;10.40;92.20
61765;DHT22;50188;48.114;-1.388;2022-11-04T03:52:35;10.40;92.40
61765;DHT22;50188;48.114;-1.388;2022-11-04T03:55:02;10.40;92.30
61765;DHT22;50188;48.114;-1.388;2022-11-04T03:57:50;10.50;92.30
61765;DHT22;50188;48.114;-1.388;2022-11-04T04:00:21;10.50;92.20
61765;DHT22;50188;48.114;-1.388;2022-11-04T04:03:17;10.50;92.20
61765;DHT22;50188;48.114;-1.388;2022-11-04T04:06:00;10.50;92.40
61765;DHT22;50188;48.114;-1.388;2022-11-04T04:08:35;10.50;92.40
61765;DHT22;50188;48.114;-1.388;2022-11-04T04:11:18;10.50;92.30
61765;DHT22;50188;48.114;-1.388;2022-11-04T04:14:12;10.50;92.30
61765;DHT22;50188;48.114;-1.388;2022-11-04T04:17:02;10.50;92.50
61765;DHT22;50188;48.114;-1.388;2022-11-04T04:19:30;10.60;92.50
61765;DHT22;50188;48.114;-1.388;2022-11-04T04:22:02;10.50;92.60
61765;DHT22;50188;48.114;-1.388;2022-11-04T04:24:33;10.60;92.50
61765;DHT22;50188;48.114;-1.388;2022-11-04T04:27:21;10.60;92.60
61765;DHT22;50188;48.114;-1.388;2022-11-04T04:30:02;10.60;92.60
61765;DHT22;50188;48.114;-1.388;2022-11-04T04:32:31;10.60;92.70
61765;DHT22;50188;48.114;-1.388;2022-11-04T04:34:58;10.70;92.70
61765;DHT22;50188;48.114;-1.388;2022-11-04T04:37:44;10.70;92.70
61765;DHT22;50188;48.114;-1.388;2022-11-04T04:40:14;10.70;92.90
61765;DHT22;50188;48.114;-1.388;2022-11-04T04:43:01;10.70;93.00
61765;DHT22;50188;48.114;-1.388;2022-11-04T04:45:51;10.80;93.30
61765;DHT22;50188;48.114;-1.388;2022-11-04T04:48:18;10.70;93.40
61765;DHT22;50188;48.114;-1.388;2022-11-04T04:50:47;10.70;94.00
61765;DHT22;50188;48.114;-1.388;2022-11-04T04:53:14;10.60;94.30
61765;DHT22;50188;48.114;-1.388;2022-11-04T04:55:39;10.70;94.50
61765;DHT22;50188;48.114;-1.388;2022-11-04T04:58:05;10.60;94.70
61765;DHT22;50188;48.114;-1.388;2022-11-04T05:00:31;10.60;94.90
61765;DHT22;50188;48.114;-1.388;2022-11-04T05:02:57;10.70;95.00
61765;DHT22;50188;48.114;-1.388;2022-11-04T05:05:24;10.60;95.00
61765;DHT22;50188;48.114;-1.388;2022-11-04T05:07:50;10.70;95.20
61765;DHT22;50188;48.114;-1.388;2022-11-04T05:10:16;10.70;95.40
61765;DHT22;50188;48.114;-1.388;2022-11-04T05:12:43;10.60;95.30
61765;DHT22;50188;48.114;-1.388;2022-11-04T05:15:30;10.70;95.40
61765;DHT22;50188;48.114;-1.388;2022-11-04T05:17:57;10.70;95.70
61765;DHT22;50188;48.114;-1.388;2022-11-04T05:20:23;10.80;95.70
61765;DHT22;50188;48.114;-1.388;2022-11-04T05:22:49;10.70;95.60
61765;DHT22;50188;48.114;-1.388;2022-11-04T05:25:15;10.60;95.60
61765;DHT22;50188;48.114;-1.388;2022-11-04T05:27:41;10.80;95.80
61765;DHT22;50188;48.114;-1.388;2022-11-04T05:30:07;10.80;95.60
61765;DHT22;50188;48.114;-1.388;2022-11-04T05:32:33;10.80;95.70
61765;DHT22;50188;48.114;-1.388;2022-11-04T05:34:58;10.80;95.70
61765;DHT22;50188;48.114;-1.388;2022-11-04T05:37:24;10.70;95.80
61765;DHT22;50188;48.114;-1.388;2022-11-04T05:39:50;10.50;95.40
61765;DHT22;50188;48.114;-1.388;2022-11-04T05:42:15;10.50;95.70
61765;DHT22;50188;48.114;-1.388;2022-11-04T05:44:41;10.50;95.80
61765;DHT22;50188;48.114;-1.388;2022-11-04T05:47:06;10.40;95.60
61765;DHT22;50188;48.114;-1.388;2022-11-04T05:49:32;10.30;95.80
61765;DHT22;50188;48.114;-1.388;2022-11-04T05:51:58;10.40;95.70
61765;DHT22;50188;48.114;-1.388;2022-11-04T05:54:24;10.40;95.80
61765;DHT22;50188;48.114;-1.388;2022-11-04T05:56:51;10.40;95.70
61765;DHT22;50188;48.114;-1.388;2022-11-04T05:59:16;10.30;95.70
61765;DHT22;50188;48.114;-1.388;2022-11-04T06:01:45;10.30;95.60
61765;DHT22;50188;48.114;-1.388;2022-11-04T06:04:16;10.30;96.10
61765;DHT22;50188;48.114;-1.388;2022-11-04T06:06:42;10.30;96.40
61765;DHT22;50188;48.114;-1.388;2022-11-04T06:09:08;10.30;96.60
61765;DHT22;50188;48.114;-1.388;2022-11-04T06:11:34;10.40;96.80
61765;DHT22;50188;48.114;-1.388;2022-11-04T06:14:00;10.40;96.80
61765;DHT22;50188;48.114;-1.388;2022-11-04T06:16:26;10.50;96.80
61765;DHT22;50188;48.114;-1.388;2022-11-04T06:18:52;10.50;96.90
61765;DHT22;50188;48.114;-1.388;2022-11-04T06:21:25;10.50;97.00
61765;DHT22;50188;48.114;-1.388;2022-11-04T06:23:53;10.40;97.20
61765;DHT22;50188;48.114;-1.388;2022-11-04T06:26:19;10.40;97.00
61765;DHT22;50188;48.114;-1.388;2022-11-04T06:28:46;10.30;96.80
61765;DHT22;50188;48.114;-1.388;2022-11-04T06:31:13;10.30;96.80
61765;DHT22;50188;48.114;-1.388;2022-11-04T06:33:39;10.20;96.80
61765;DHT22;50188;48.114;-1.388;2022-11-04T06:36:11;10.20;97.00
61765;DHT22;50188;48.114;-1.388;2022-11-04T06:38:37;10.20;97.10
61765;DHT22;50188;48.114;-1.388;2022-11-04T06:41:05;10.20;97.30
61765;DHT22;50188;48.114;-1.388;2022-11-04T06:43:31;10.30;97.50
61765;DHT22;50188;48.114;-1.388;2022-11-04T06:45:58;10.30;97.60
61765;DHT22;50188;48.114;-1.388;2022-11-04T06:48:25;10.30;97.80
61765;DHT22;50188;48.114;-1.388;2022-11-04T06:50:51;10.30;98.10
61765;DHT22;50188;48.114;-1.388;2022-11-04T06:53:16;10.30;98.00
61765;DHT22;50188;48.114;-1.388;2022-11-04T06:55:43;10.30;98.10
61765;DHT22;50188;48.114;-1.388;2022-11-04T06:58:09;10.40;98.30
61765;DHT22;50188;48.114;-1.388;2022-11-04T07:00:35;10.40;98.30
61765;DHT22;50188;48.114;-1.388;2022-11-04T07:03:01;10.40;98.50
61765;DHT22;50188;48.114;-1.388;2022-11-04T07:05:26;10.40;98.30
61765;DHT22;50188;48.114;-1.388;2022-11-04T07:07:52;10.50;98.40
61765;DHT22;50188;48.114;-1.388;2022-11-04T07:10:18;10.50;98.40
61765;DHT22;50188;48.114;-1.388;2022-11-04T07:12:43;10.60;98.70
61765;DHT22;50188;48.114;-1.388;2022-11-04T07:15:09;10.70;98.60
61765;DHT22;50188;48.114;-1.388;2022-11-04T07:17:35;10.60;98.60
61765;DHT22;50188;48.114;-1.388;2022-11-04T07:20:02;10.60;98.70
61765;DHT22;50188;48.114;-1.388;2022-11-04T07:22:27;10.60;98.70
61765;DHT22;50188;48.114;-1.388;2022-11-04T07:24:53;10.70;98.90
61765;DHT22;50188;48.114;-1.388;2022-11-04T07:27:19;10.70;98.80
61765;DHT22;50188;48.114;-1.388;2022-11-04T07:29:44;10.80;98.70
61765;DHT22;50188;48.114;-1.388;2022-11-04T07:32:10;10.80;98.70
61765;DHT22;50188;48.114;-1.388;2022-11-04T07:34:36;10.80;98.70
61765;DHT22;50188;48.114;-1.388;2022-11-04T07:37:01;10.80;98.90
61765;DHT22;50188;48.114;-1.388;2022-11-04T07:39:27;10.90;98.80
61765;DHT22;50188;48.114;-1.388;2022-11-04T07:41:52;10.90;99.00
61765;DHT22;50188;48.114;-1.388;2022-11-04T07:44:18;10.90;99.00
61765;DHT22;50188;48.114;-1.388;2022-11-04T07:46:46;10.90;99.00
61765;DHT22;50188;48.114;-1.388;2022-11-04T07:49:12;10.90;99.10
61765;DHT22;50188;48.114;-1.388;2022-11-04T07:51:38;11.00;99.40
61765;DHT22;50188;48.114;-1.388;2022-11-04T07:54:03;11.00;99.30
61765;DHT22;50188;48.114;-1.388;2022-11-04T07:56:29;11.00;99.50
61765;DHT22;50188;48.114;-1.388;2022-11-04T07:58:55;11.00;99.80
61765;DHT22;50188;48.114;-1.388;2022-11-04T08:01:22;11.00;99.60
61765;DHT22;50188;48.114;-1.388;2022-11-04T08:03:49;11.20;99.90
61765;DHT22;50188;48.114;-1.388;2022-11-04T08:06:17;11.50;99.50
61765;DHT22;50188;48.114;-1.388;2022-11-04T08:08:42;11.80;98.70
61765;DHT22;50188;48.114;-1.388;2022-11-04T08:11:12;12.00;98.10
61765;DHT22;50188;48.114;-1.388;2022-11-04T08:13:39;12.10;97.60
61765;DHT22;50188;48.114;-1.388;2022-11-04T08:16:07;12.40;97.50
61765;DHT22;50188;48.114;-1.388;2022-11-04T08:18:34;12.50;96.00
61765;DHT22;50188;48.114;-1.388;2022-11-04T08:21:00;12.60;95.50
61765;DHT22;50188;48.114;-1.388;2022-11-04T08:23:29;12.70;95.80
61765;DHT22;50188;48.114;-1.388;2022-11-04T08:25:55;12.80;95.20
61765;DHT22;50188;48.114;-1.388;2022-11-04T08:28:22;12.90;94.80
61765;DHT22;50188;48.114;-1.388;2022-11-04T08:30:57;12.90;94.50
61765;DHT22;50188;48.114;-1.388;2022-11-04T08:33:24;13.00;94.70
61765;DHT22;50188;48.114;-1.388;2022-11-04T08:35:51;13.10;94.00
61765;DHT22;50188;48.114;-1.388;2022-11-04T08:38:17;13.10;94.30
61765;DHT22;50188;48.114;-1.388;2022-11-04T08:40:42;13.10;94.40
61765;DHT22;50188;48.114;-1.388;2022-11-04T08:43:08;13.30;94.30
61765;DHT22;50188;48.114;-1.388;2022-11-04T08:45:39;13.50;93.70
61765;DHT22;50188;48.114;-1.388;2022-11-04T08:48:05;13.50;93.80
61765;DHT22;50188;48.114;-1.388;2022-11-04T08:50:31;13.60;93.70
61765;DHT22;50188;48.114;-1.388;2022-11-04T08:52:56;13.80;93.20
61765;DHT22;50188;48.114;-1.388;2022-11-04T08:55:23;13.90;93.60
61765;DHT22;50188;48.114;-1.388;2022-11-04T08:57:48;14.20;92.90
61765;DHT22;50188;48.114;-1.388;2022-11-04T09:00:18;14.20;92.20
61765;DHT22;50188;48.114;-1.388;2022-11-04T09:02:43;14.40;91.80
61765;DHT22;50188;48.114;-1.388;2022-11-04T09:05:09;14.40;91.60
61765;DHT22;50188;48.114;-1.388;2022-11-04T09:07:35;14.70;90.90
61765;DHT22;50188;48.114;-1.388;2022-11-04T09:10:04;14.80;90.90
61765;DHT22;50188;48.114;-1.388;2022-11-04T09:12:30;14.90;90.80
61765;DHT22;50188;48.114;-1.388;2022-11-04T09:14:56;14.60;91.00
61765;DHT22;50188;48.114;-1.388;2022-11-04T09:17:22;14.40;90.90
61765;DHT22;50188;48.114;-1.388;2022-11-04T09:19:51;14.50;90.80
61765;DHT22;50188;48.114;-1.388;2022-11-04T09:22:19;14.40;91.10
61765;DHT22;50188;48.114;-1.388;2022-11-04T09:24:45;14.30;91.30
61765;DHT22;50188;48.114;-1.388;2022-11-04T09:27:10;14.20;91.40
61765;DHT22;50188;48.114;-1.388;2022-11-04T09:29:36;13.90;91.20
61765;DHT22;50188;48.114;-1.388;2022-11-04T09:32:03;13.80;91.70
61765;DHT22;50188;48.114;-1.388;2022-11-04T09:34:29;13.70;91.20
61765;DHT22;50188;48.114;-1.388;2022-11-04T09:36:55;13.70;92.00
61765;DHT22;50188;48.114;-1.388;2022-11-04T09:39:22;14.00;92.20
61765;DHT22;50188;48.114;-1.388;2022-11-04T09:42:03;14.20;90.90
61765;DHT22;50188;48.114;-1.388;2022-11-04T09:44:53;14.10;90.20
61765;DHT22;50188;48.114;-1.388;2022-11-04T09:47:21;14.30;90.40
61765;DHT22;50188;48.114;-1.388;2022-11-04T09:49:50;14.40;90.10
61765;DHT22;50188;48.114;-1.388;2022-11-04T09:52:23;14.50;90.10
61765;DHT22;50188;48.114;-1.388;2022-11-04T09:55:20;14.50;90.00
61765;DHT22;50188;48.114;-1.388;2022-11-04T09:57:55;14.40;89.30
61765;DHT22;50188;48.114;-1.388;2022-11-04T10:00:22;14.40;88.10
61765;DHT22;50188;48.114;-1.388;2022-11-04T10:06:06;14.10;86.00
61765;DHT22;50188;48.114;-1.388;2022-11-04T10:08:54;13.80;89.70
61765;DHT22;50188;48.114;-1.388;2022-11-04T10:11:34;14.10;89.10
61765;DHT22;50188;48.114;-1.388;2022-11-04T10:14:26;14.40;90.10
61765;DHT22;50188;48.114;-1.388;2022-11-04T10:17:20;13.90;88.00
61765;DHT22;50188;48.114;-1.388;2022-11-04T10:20:21;13.80;88.80
61765;DHT22;50188;48.114;-1.388;2022-11-04T10:23:17;14.00;88.90
61765;DHT22;50188;48.114;-1.388;2022-11-04T10:25:51;14.10;84.60
61765;DHT22;50188;48.114;-1.388;2022-11-04T10:28:20;14.10;85.30
61765;DHT22;50188;48.114;-1.388;2022-11-04T10:30:50;14.20;85.90
61765;DHT22;50188;48.114;-1.388;2022-11-04T10:33:41;14.30;85.10
61765;DHT22;50188;48.114;-1.388;2022-11-04T10:36:09;14.30;84.70
61765;DHT22;50188;48.114;-1.388;2022-11-04T10:38:50;14.40;84.50
61765;DHT22;50188;48.114;-1.388;2022-11-04T10:41:36;14.40;83.30
61765;DHT22;50188;48.114;-1.388;2022-11-04T10:44:09;14.50;84.10
61765;DHT22;50188;48.114;-1.388;2022-11-04T10:50:03;14.50;84.40
61765;DHT22;50188;48.114;-1.388;2022-11-04T10:52:34;14.40;84.30
61765;DHT22;50188;48.114;-1.388;2022-11-04T10:55:01;14.10;85.00
61765;DHT22;50188;48.114;-1.388;2022-11-04T10:57:27;14.10;85.60
61765;DHT22;50188;48.114;-1.388;2022-11-04T10:59:59;14.10;86.20
61765;DHT22;50188;48.114;-1.388;2022-11-04T11:02:45;14.00;86.60
61765;DHT22;50188;48.114;-1.388;2022-11-04T11:05:23;14.10;85.00
61765;DHT22;50188;48.114;-1.388;2022-11-04T11:07:52;13.90;84.10
61765;DHT22;50188;48.114;-1.388;2022-11-04T11:10:25;14.20;87.00
61765;DHT22;50188;48.114;-1.388;2022-11-04T11:12:59;14.40;83.40
61765;DHT22;50188;48.114;-1.388;2022-11-04T11:15:38;14.50;82.60
61765;DHT22;50188;48.114;-1.388;2022-11-04T11:18:14;14.40;83.50
61765;DHT22;50188;48.114;-1.388;2022-11-04T11:20:42;14.50;84.70
61765;DHT22;50188;48.114;-1.388;2022-11-04T11:23:34;14.20;81.20
61765;DHT22;50188;48.114;-1.388;2022-11-04T11:26:01;14.30;83.20
61765;DHT22;50188;48.114;-1.388;2022-11-04T11:28:28;14.30;84.00
61765;DHT22;50188;48.114;-1.388;2022-11-04T11:30:57;14.20;83.40
61765;DHT22;50188;48.114;-1.388;2022-11-04T11:33:27;14.30;80.70
61765;DHT22;50188;48.114;-1.388;2022-11-04T11:35:55;14.30;80.40
61765;DHT22;50188;48.114;-1.388;2022-11-04T11:38:24;14.20;80.40
61765;DHT22;50188;48.114;-1.388;2022-11-04T11:41:02;14.00;81.20
61765;DHT22;50188;48.114;-1.388;2022-11-04T11:43:31;14.00;82.40
61765;DHT22;50188;48.114;-1.388;2022-11-04T11:45:58;14.20;83.80
61765;DHT22;50188;48.114;-1.388;2022-11-04T11:48:48;14.20;80.70
61765;DHT22;50188;48.114;-1.388;2022-11-04T11:51:25;14.30;81.60
61765;DHT22;50188;48.114;-1.388;2022-11-04T11:54:19;14.40;84.90
61765;DHT22;50188;48.114;-1.388;2022-11-04T11:56:53;14.40;79.80
61765;DHT22;50188;48.114;-1.388;2022-11-04T11:59:32;14.40;81.40
61765;DHT22;50188;48.114;-1.388;2022-11-04T12:02:30;14.30;80.50
61765;DHT22;50188;48.114;-1.388;2022-11-04T12:04:59;14.30;82.00
61765;DHT22;50188;48.114;-1.388;2022-11-04T12:07:52;14.40;80.70
61765;DHT22;50188;48.114;-1.388;2022-11-04T12:10:35;14.50;79.20
61765;DHT22;50188;48.114;-1.388;2022-11-04T12:13:23;14.40;77.50
61765;DHT22;50188;48.114;-1.388;2022-11-04T12:16:14;14.30;79.20
61765;DHT22;50188;48.114;-1.388;2022-11-04T12:19:19;14.30;78.20
61765;DHT22;50188;48.114;-1.388;2022-11-04T12:22:13;14.50;78.10
61765;DHT22;50188;48.114;-1.388;2022-11-04T12:27:51;14.60;77.50
61765;DHT22;50188;48.114;-1.388;2022-11-04T12:30:21;14.70;77.70
61765;DHT22;50188;48.114;-1.388;2022-11-04T12:36:10;14.50;77.80
61765;DHT22;50188;48.114;-1.388;2022-11-04T12:39:01;14.50;80.70
61765;DHT22;50188;48.114;-1.388;2022-11-04T12:41:55;14.70;78.80
61765;DHT22;50188;48.114;-1.388;2022-11-04T12:44:32;14.70;76.90
61765;DHT22;50188;48.114;-1.388;2022-11-04T12:47:14;14.80;76.10
61765;DHT22;50188;48.114;-1.388;2022-11-04T12:50:19;14.90;78.00
61765;DHT22;50188;48.114;-1.388;2022-11-04T12:53:15;14.90;77.90
61765;DHT22;50188;48.114;-1.388;2022-11-04T12:56:10;14.80;77.50
61765;DHT22;50188;48.114;-1.388;2022-11-04T13:01:43;14.70;78.50
61765;DHT22;50188;48.114;-1.388;2022-11-04T13:04:19;14.40;78.20
61765;DHT22;50188;48.114;-1.388;2022-11-04T13:07:00;14.10;76.60
61765;DHT22;50188;48.114;-1.388;2022-11-04T13:09:43;14.00;77.50
61765;DHT22;50188;48.114;-1.388;2022-11-04T13:12:22;13.90;79.50
61765;DHT22;50188;48.114;-1.388;2022-11-04T13:14:56;13.70;79.70
61765;DHT22;50188;48.114;-1.388;2022-11-04T13:17:29;13.80;80.20
61765;DHT22;50188;48.114;-1.388;2022-11-04T13:20:02;13.80;79.00
61765;DHT22;50188;48.114;-1.388;2022-11-04T13:22:35;13.90;81.20
61765;DHT22;50188;48.114;-1.388;2022-11-04T13:25:14;14.10;80.60
61765;DHT22;50188;48.114;-1.388;2022-11-04T13:27:44;14.20;78.90
61765;DHT22;50188;48.114;-1.388;2022-11-04T13:30:34;14.10;76.40
61765;DHT22;50188;48.114;-1.388;2022-11-04T13:33:33;14.20;80.30
61765;DHT22;50188;48.114;-1.388;2022-11-04T13:36:20;14.10;77.90
61765;DHT22;50188;48.114;-1.388;2022-11-04T13:38:59;14.10;79.80
61765;DHT22;50188;48.114;-1.388;2022-11-04T13:41:49;14.00;78.30
61765;DHT22;50188;48.114;-1.388;2022-11-04T13:44:34;13.90;78.40
61765;DHT22;50188;48.114;-1.388;2022-11-04T13:47:04;13.70;79.80
61765;DHT22;50188;48.114;-1.388;2022-11-04T13:49:31;13.80;81.00
61765;DHT22;50188;48.114;-1.388;2022-11-04T13:52:08;13.90;81.10
61765;DHT22;50188;48.114;-1.388;2022-11-04T13:54:37;14.10;81.20
61765;DHT22;50188;48.114;-1.388;2022-11-04T13:57:13;14.10;80.40
61765;DHT22;50188;48.114;-1.388;2022-11-04T13:59:40;14.20;79.60
61765;DHT22;50188;48.114;-1.388;2022-11-04T14:02:23;14.20;80.30
61765;DHT22;50188;48.114;-1.388;2022-11-04T14:04:50;14.30;80.80
61765;DHT22;50188;48.114;-1.388;2022-11-04T14:07:16;14.20;80.90
61765;DHT22;50188;48.114;-1.388;2022-11-04T14:09:50;14.20;80.80
61765;DHT22;50188;48.114;-1.388;2022-11-04T14:12:25;14.10;79.00
61765;DHT22;50188;48.114;-1.388;2022-11-04T14:15:07;14.00;77.90
61765;DHT22;50188;48.114;-1.388;2022-11-04T14:17:57;14.00;75.40
61765;DHT22;50188;48.114;-1.388;2022-11-04T14:20:24;14.00;78.70
61765;DHT22;50188;48.114;-1.388;2022-11-04T14:22:58;13.90;77.40
61765;DHT22;50188;48.114;-1.388;2022-11-04T14:25:32;13.90;79.10
61765;DHT22;50188;48.114;-1.388;2022-11-04T14:28:17;13.90;78.30
61765;DHT22;50188;48.114;-1.388;2022-11-04T14:33:50;13.80;79.30
61765;DHT22;50188;48.114;-1.388;2022-11-04T14:36:39;13.80;80.40
61765;DHT22;50188;48.114;-1.388;2022-11-04T14:39:26;13.70;81.20
61765;DHT22;50188;48.114;-1.388;2022-11-04T14:41:58;13.60;82.20
61765;DHT22;50188;48.114;-1.388;2022-11-04T14:44:34;13.50;83.00
61765;DHT22;50188;48.114;-1.388;2022-11-04T14:47:27;13.40;83.10
61765;DHT22;50188;48.114;-1.388;2022-11-04T14:50:04;13.40;83.10
61765;DHT22;50188;48.114;-1.388;2022-11-04T14:52:47;13.40;82.50
61765;DHT22;50188;48.114;-1.388;2022-11-04T14:55:17;13.40;81.60
61765;DHT22;50188;48.114;-1.388;2022-11-04T14:57:48;13.40;81.20
61765;DHT22;50188;48.114;-1.388;2022-11-04T15:00:30;13.50;82.10
61765;DHT22;50188;48.114;-1.388;2022-11-04T15:05:58;13.50;80.50
61765;DHT22;50188;48.114;-1.388;2022-11-04T15:08:26;13.60;79.80
61765;DHT22;50188;48.114;-1.388;2022-11-04T15:10:58;13.70;80.00
61765;DHT22;50188;48.114;-1.388;2022-11-04T15:13:24;13.70;79.30
61765;DHT22;50188;48.114;-1.388;2022-11-04T15:15:52;13.70;79.30
61765;DHT22;50188;48.114;-1.388;2022-11-04T15:18:25;13.70;80.80
61765;DHT22;50188;48.114;-1.388;2022-11-04T15:20:56;13.70;78.90
61765;DHT22;50188;48.114;-1.388;2022-11-04T15:23:30;13.70;78.70
61765;DHT22;50188;48.114;-1.388;2022-11-04T15:25:57;13.70;79.60
61765;DHT22;50188;48.114;-1.388;2022-11-04T15:28:29;13.80;80.60
61765;DHT22;50188;48.114;-1.388;2022-11-04T15:31:13;13.80;80.00
61765;DHT22;50188;48.114;-1.388;2022-11-04T15:33:43;13.80;80.10
61765;DHT22;50188;48.114;-1.388;2022-11-04T15:36:17;13.70;80.80
61765;DHT22;50188;48.114;-1.388;2022-11-04T15:38:48;13.70;80.80
61765;DHT22;50188;48.114;-1.388;2022-11-04T15:41:18;13.70;81.40
61765;DHT22;50188;48.114;-1.388;2022-11-04T15:44:11;13.70;81.90
61765;DHT22;50188;48.114;-1.388;2022-11-04T15:46:37;13.70;81.70
61765;DHT22;50188;48.114;-1.388;2022-11-04T15:49:05;13.70;82.50
61765;DHT22;50188;48.114;-1.388;2022-11-04T15:51:37;13.60;80.00
61765;DHT22;50188;48.114;-1.388;2022-11-04T15:54:19;13.60;81.10
61765;DHT22;50188;48.114;-1.388;2022-11-04T15:56:48;13.40;79.30
61765;DHT22;50188;48.114;-1.388;2022-11-04T15:59:20;13.50;80.70
61765;DHT22;50188;48.114;-1.388;2022-11-04T16:01:49;13.50;81.30
61765;DHT22;50188;48.114;-1.388;2022-11-04T16:04:17;13.50;81.90
61765;DHT22;50188;48.114;-1.388;2022-11-04T16:06:44;13.40;82.30
61765;DHT22;50188;48.114;-1.388;2022-11-04T16:09:21;13.40;82.50
61765;DHT22;50188;48.114;-1.388;2022-11-04T16:12:10;13.40;82.50
61765;DHT22;50188;48.114;-1.388;2022-11-04T16:14:37;13.40;82.90
61765;DHT22;50188;48.114;-1.388;2022-11-04T16:17:02;13.30;82.90
61765;DHT22;50188;48.114;-1.388;2022-11-04T16:19:29;13.20;83.30
61765;DHT22;50188;48.114;-1.388;2022-11-04T16:22:01;13.20;82.80